EPKK

John Paul II International Kraków-Balice Airport

Kraków, Poland
METAR EPKK 201030Z VRB02KT 4600 BR BKN060 M03/M06 Q1016
Observed Flight Rules
Jan-20 @ 10:30 UTC (32 minutes ago) Instrument Flight Rules
Wind Visibility Clouds Conditions
Variable at 2 knots 4,603 meters
  • Broken at 6,000' AGL
  • Mist
Temperatures Readings
Current -3°C / 27°F
Dewpoint -6°C / 21°F
Humidity 80%
Altimeter 30" Hg
Pressure 1015.92 hPa
Elevation 237
METAR EPKK 201030Z VRB02KT 4600 BR BKN060 M03/M06 Q1016
Observed Flight Rules
Jan-20 @ 10:30 UTC
(32 minutes ago)
IFR
Wind Visibility
Variable at 2 knots 4,603 meters
Clouds
  • Broken at 6,000' AGL
Conditions
  • Mist
Temperature Dewpoint
-3°C / 27°F -6°C / 21°F
Humidity Altimeter Pressure
80% 30" Hg 1015.92 hPa